createdAt,value
2018-11-23T00:00:52.454Z,2.39
2018-11-23T00:01:53.035Z,2.35
2018-11-23T00:02:52.493Z,2.49
2018-11-23T00:03:52.422Z,2.35
2018-11-23T00:04:52.412Z,2.35
2018-11-23T00:05:52.410Z,2.48
2018-11-23T00:06:52.391Z,2.46
2018-11-23T00:07:52.448Z,2.34
2018-11-23T00:08:52.372Z,2.34
2018-11-23T00:09:52.363Z,2.39
2018-11-23T00:10:52.350Z,2.41
2018-11-23T00:11:52.339Z,2.42
2018-11-23T00:12:52.394Z,2.38
2018-11-23T00:13:52.322Z,2.38
2018-11-23T00:14:52.312Z,2.35
2018-11-23T00:15:52.298Z,2.38
2018-11-23T00:16:52.287Z,2.36
2018-11-23T00:17:52.340Z,2.34
2018-11-23T00:18:52.268Z,2.38
2018-11-23T00:19:52.260Z,2.38
2018-11-23T00:20:52.250Z,2.39
2018-11-23T00:21:52.234Z,2.42
2018-11-23T00:22:52.599Z,2.35
2018-11-23T00:23:52.219Z,2.34
2018-11-23T00:24:52.213Z,2.39
2018-11-23T00:25:52.199Z,2.27
2018-11-23T00:26:52.187Z,2.36
2018-11-23T00:27:52.246Z,2.28
2018-11-23T00:28:52.167Z,2.34
2018-11-23T00:29:52.155Z,2.27
2018-11-23T00:30:52.146Z,2.34
2018-11-23T00:31:52.133Z,2.34
2018-11-23T00:32:52.188Z,2.31
2018-11-23T00:33:52.114Z,2.35
2018-11-23T00:34:52.104Z,2.30
2018-11-23T00:35:52.095Z,2.34
2018-11-23T00:36:52.085Z,2.35
2018-11-23T00:37:52.137Z,2.25
2018-11-23T00:38:52.074Z,2.30
2018-11-23T00:39:52.052Z,2.27
2018-11-23T00:40:52.042Z,2.34
2018-11-23T00:41:52.031Z,2.34
2018-11-23T00:42:52.080Z,2.34
2018-11-23T00:43:52.527Z,2.30
2018-11-23T00:44:52.002Z,2.30
2018-11-23T00:45:51.991Z,2.28
2018-11-23T00:46:51.981Z,2.28
2018-11-23T00:47:52.038Z,2.30
2018-11-23T00:48:51.959Z,2.38
2018-11-23T00:49:51.947Z,2.39
2018-11-23T00:50:51.938Z,2.34
2018-11-23T00:51:51.928Z,2.38
2018-11-23T00:52:51.989Z,2.30
2018-11-23T00:53:51.908Z,2.38
2018-11-23T00:54:51.898Z,2.36
2018-11-23T00:55:51.885Z,2.34
2018-11-23T00:56:51.875Z,2.34
2018-11-23T00:57:51.869Z,2.31
2018-11-23T00:58:51.916Z,2.35
2018-11-23T00:59:51.845Z,2.31
2018-11-23T01:00:51.833Z,2.38
2018-11-23T01:01:51.826Z,2.34
2018-11-23T01:02:51.820Z,2.31
2018-11-23T01:03:51.867Z,2.38
2018-11-23T01:04:52.520Z,2.30
2018-11-23T01:05:51.783Z,2.34
2018-11-23T01:06:52.534Z,2.28
2018-11-23T01:07:51.766Z,2.30
2018-11-23T01:08:51.819Z,2.38
2018-11-23T01:09:51.750Z,2.41
2018-11-23T01:10:51.734Z,2.30
2018-11-23T01:11:51.723Z,2.35
2018-11-23T01:12:51.714Z,2.35
2018-11-23T01:13:51.765Z,2.28
2018-11-23T01:14:51.696Z,2.39
2018-11-23T01:15:51.680Z,2.34
2018-11-23T01:16:51.673Z,2.38
2018-11-23T01:17:51.659Z,2.38
2018-11-23T01:18:51.722Z,2.27
2018-11-23T01:19:51.642Z,2.36
2018-11-23T01:20:51.635Z,2.27
2018-11-23T01:21:51.620Z,2.36
2018-11-23T01:22:51.611Z,2.38
2018-11-23T01:23:51.669Z,2.36
2018-11-23T01:24:51.594Z,2.27
2018-11-23T01:25:52.520Z,2.30
2018-11-23T01:26:51.572Z,2.23
2018-11-23T01:27:51.558Z,2.23
2018-11-23T01:28:51.609Z,2.18
2018-11-23T01:29:51.541Z,2.20
2018-11-23T01:30:51.528Z,2.12
2018-11-23T01:31:51.519Z,2.12
2018-11-23T01:32:51.510Z,2.21
2018-11-23T01:33:51.556Z,2.16
2018-11-23T01:34:51.489Z,2.16
2018-11-23T01:35:51.480Z,2.16
2018-11-23T01:36:51.468Z,2.14
2018-11-23T01:37:51.457Z,2.09
2018-11-23T01:38:51.508Z,2.12
2018-11-23T01:39:51.435Z,2.16
2018-11-23T01:40:51.426Z,2.09
2018-11-23T01:41:51.417Z,2.10
2018-11-23T01:42:51.411Z,2.10
2018-11-23T01:43:51.459Z,2.09
2018-11-23T01:44:51.384Z,2.10
2018-11-23T01:45:51.375Z,2.09
2018-11-23T01:46:52.018Z,2.05
2018-11-23T01:47:51.353Z,2.09
2018-11-23T01:48:51.403Z,2.07
2018-11-23T01:49:51.333Z,2.10
2018-11-23T01:50:51.324Z,2.06
2018-11-23T01:51:51.310Z,1.99
2018-11-23T01:52:51.300Z,2.14
2018-11-23T01:53:51.360Z,2.00
2018-11-23T01:54:51.282Z,2.09
2018-11-23T01:55:51.273Z,1.93
2018-11-23T01:56:51.258Z,2.09
2018-11-23T01:57:51.249Z,2.10
2018-11-23T01:58:51.238Z,2.09
2018-11-23T01:59:51.290Z,2.07
2018-11-23T02:00:51.219Z,2.06
2018-11-23T02:01:51.212Z,2.06
2018-11-23T02:02:51.199Z,1.99
2018-11-23T02:03:51.190Z,1.98
2018-11-23T02:04:51.241Z,2.03
2018-11-23T02:05:51.171Z,1.98
2018-11-23T02:06:51.156Z,1.88
2018-11-23T02:07:53.013Z,1.99
2018-11-23T02:08:51.136Z,1.98
2018-11-23T02:09:51.196Z,1.99
2018-11-23T02:10:51.118Z,1.93
2018-11-23T02:11:51.105Z,1.98
2018-11-23T02:12:51.094Z,2.02
2018-11-23T02:13:51.087Z,1.99
2018-11-23T02:14:51.137Z,1.95
2018-11-23T02:15:51.064Z,2.03
2018-11-23T02:16:51.057Z,1.93
2018-11-23T02:17:51.042Z,1.90
2018-11-23T02:18:51.034Z,2.05
2018-11-23T02:19:51.095Z,2.00
2018-11-23T02:20:51.018Z,1.95
2018-11-23T02:21:51.004Z,1.88
2018-11-23T02:22:50.994Z,1.95
2018-11-23T02:23:50.982Z,1.95
2018-11-23T02:24:51.032Z,1.93
2018-11-23T02:25:50.959Z,1.87
2018-11-23T02:26:50.954Z,1.87
2018-11-23T02:27:50.953Z,1.91
2018-11-23T02:28:51.511Z,1.84
2018-11-23T02:29:50.987Z,1.90
2018-11-23T02:30:50.909Z,1.86
2018-11-23T02:31:50.899Z,1.87
2018-11-23T02:32:50.892Z,1.90
2018-11-23T02:33:50.878Z,1.84
2018-11-23T02:34:50.930Z,1.87
2018-11-23T02:35:50.857Z,1.88
2018-11-23T02:36:50.848Z,1.84
2018-11-23T02:37:50.839Z,1.91
2018-11-23T02:38:50.830Z,1.88
2018-11-23T02:39:50.879Z,1.93
2018-11-23T02:40:50.807Z,1.87
2018-11-23T02:41:50.794Z,1.86
2018-11-23T02:42:50.788Z,1.88
2018-11-23T02:43:50.782Z,1.88
2018-11-23T02:44:50.835Z,1.86
2018-11-23T02:45:50.755Z,1.83
2018-11-23T02:46:50.744Z,1.86
2018-11-23T02:47:50.734Z,1.83
2018-11-23T02:48:50.728Z,1.88
2018-11-23T02:49:51.074Z,1.88
2018-11-23T02:50:50.704Z,1.86
2018-11-23T02:51:50.692Z,1.93
2018-11-23T02:52:50.703Z,1.91
2018-11-23T02:53:50.674Z,1.88
2018-11-23T02:54:50.726Z,1.93
2018-11-23T02:55:50.654Z,1.91
2018-11-23T02:56:50.643Z,1.99
2018-11-23T02:57:50.632Z,1.93
2018-11-23T02:58:50.621Z,1.98
2018-11-23T02:59:50.678Z,2.02
2018-11-23T03:00:50.608Z,2.06
2018-11-23T03:01:50.591Z,2.10
2018-11-23T03:02:50.585Z,1.99
2018-11-23T03:03:50.570Z,2.10
2018-11-23T03:04:50.622Z,2.03
2018-11-23T03:05:50.552Z,2.06
2018-11-23T03:06:50.542Z,2.05
2018-11-23T03:07:50.532Z,2.02
2018-11-23T03:08:50.522Z,2.10
2018-11-23T03:09:50.584Z,1.95
2018-11-23T03:10:50.999Z,2.07
2018-11-23T03:11:50.489Z,2.09
2018-11-23T03:12:50.479Z,2.10
2018-11-23T03:13:50.473Z,2.03
2018-11-23T03:14:50.457Z,2.03
2018-11-23T03:15:50.519Z,2.07
2018-11-23T03:16:50.438Z,2.00
2018-11-23T03:17:50.434Z,2.10
2018-11-23T03:18:50.417Z,2.09
2018-11-23T03:19:50.405Z,2.03
2018-11-23T03:20:50.457Z,1.93
2018-11-23T03:21:50.387Z,2.03
2018-11-23T03:22:50.382Z,1.95
2018-11-23T03:23:50.367Z,2.03
2018-11-23T03:24:50.357Z,2.00
2018-11-23T03:25:50.406Z,1.99
2018-11-23T03:26:50.336Z,2.02
2018-11-23T03:27:50.328Z,2.02
2018-11-23T03:28:50.318Z,1.98
2018-11-23T03:29:50.312Z,1.95
2018-11-23T03:30:50.356Z,2.02
2018-11-23T03:31:50.998Z,2.09
2018-11-23T03:32:50.273Z,2.12
2018-11-23T03:33:50.267Z,2.07
2018-11-23T03:34:50.253Z,2.12
2018-11-23T03:35:50.305Z,2.14
2018-11-23T03:36:50.236Z,1.99
2018-11-23T03:37:50.221Z,2.12
2018-11-23T03:38:50.215Z,2.00
2018-11-23T03:39:50.202Z,1.98
2018-11-23T03:40:50.253Z,1.95
2018-11-23T03:41:50.181Z,1.99
2018-11-23T03:42:50.169Z,2.00
2018-11-23T03:43:50.165Z,1.98
2018-11-23T03:44:50.150Z,1.87
2018-11-23T03:45:50.212Z,1.93
2018-11-23T03:46:50.130Z,1.95
2018-11-23T03:47:50.118Z,1.93
2018-11-23T03:48:50.109Z,1.98
2018-11-23T03:49:50.100Z,1.95
2018-11-23T03:50:50.160Z,2.03
2018-11-23T03:51:50.081Z,1.98
2018-11-23T03:52:50.995Z,1.93
2018-11-23T03:53:50.058Z,1.98
2018-11-23T03:54:50.050Z,2.00
2018-11-23T03:55:50.104Z,1.93
2018-11-23T03:56:50.028Z,1.86
2018-11-23T03:57:50.024Z,1.90
2018-11-23T03:58:50.010Z,1.87
2018-11-23T03:59:50.001Z,1.91
2018-11-23T04:00:50.051Z,1.88
2018-11-23T04:01:49.979Z,1.90
2018-11-23T04:02:49.968Z,1.90
2018-11-23T04:03:49.956Z,1.90
2018-11-23T04:04:49.945Z,1.88
2018-11-23T04:05:49.996Z,1.86
2018-11-23T04:06:49.923Z,1.81
2018-11-23T04:07:49.914Z,1.83
2018-11-23T04:08:49.909Z,1.87
2018-11-23T04:09:49.896Z,1.88
2018-11-23T04:10:49.945Z,1.80
2018-11-23T04:11:49.875Z,1.84
2018-11-23T04:12:49.863Z,1.81
2018-11-23T04:13:50.491Z,1.80
2018-11-23T04:14:49.842Z,1.79
2018-11-23T04:15:49.905Z,1.79
2018-11-23T04:16:49.830Z,1.72
2018-11-23T04:17:49.815Z,1.70
2018-11-23T04:18:49.809Z,1.69
2018-11-23T04:19:49.792Z,1.69
2018-11-23T04:20:49.781Z,1.65
2018-11-23T04:21:49.831Z,1.66
2018-11-23T04:22:49.761Z,1.60
2018-11-23T04:23:49.750Z,1.66
2018-11-23T04:24:49.744Z,1.65
2018-11-23T04:25:49.729Z,1.60
2018-11-23T04:26:49.780Z,1.62
2018-11-23T04:27:49.715Z,1.63
2018-11-23T04:28:50.483Z,1.69
2018-11-23T04:29:49.689Z,1.76
2018-11-23T04:30:49.678Z,1.63
2018-11-23T04:31:49.729Z,1.68
2018-11-23T04:32:49.666Z,1.65
2018-11-23T04:33:49.648Z,1.69
2018-11-23T04:34:50.481Z,1.72
2018-11-23T04:35:49.632Z,1.69
2018-11-23T04:36:49.681Z,1.76
2018-11-23T04:37:49.606Z,1.76
2018-11-23T04:38:49.597Z,1.77
2018-11-23T04:39:49.598Z,1.80
2018-11-23T04:40:49.580Z,1.80
2018-11-23T04:41:49.627Z,1.83
2018-11-23T04:42:49.557Z,1.87
2018-11-23T04:43:49.543Z,1.87
2018-11-23T04:44:49.533Z,1.83
2018-11-23T04:45:49.535Z,1.84
2018-11-23T04:46:49.574Z,1.93
2018-11-23T04:47:49.508Z,1.88
2018-11-23T04:48:49.492Z,2.02
2018-11-23T04:49:49.485Z,1.99
2018-11-23T04:50:49.473Z,2.02
2018-11-23T04:51:49.523Z,1.91
2018-11-23T04:52:49.455Z,2.03
2018-11-23T04:53:49.441Z,1.93
2018-11-23T04:54:49.432Z,1.90
2018-11-23T04:55:49.979Z,1.98
2018-11-23T04:56:49.475Z,1.99
2018-11-23T04:57:53.632Z,1.87
2018-11-23T04:58:49.390Z,1.88
2018-11-23T04:59:49.378Z,1.91
2018-11-23T05:00:49.372Z,1.91
2018-11-23T05:01:49.421Z,1.95
2018-11-23T05:02:49.354Z,2.00
2018-11-23T05:03:49.344Z,1.98
2018-11-23T05:04:49.328Z,1.86
2018-11-23T05:05:49.320Z,1.91
2018-11-23T05:06:49.369Z,1.95
2018-11-23T05:07:49.295Z,1.93
2018-11-23T05:08:49.287Z,1.91
2018-11-23T05:09:49.279Z,1.91
2018-11-23T05:10:49.272Z,1.95
2018-11-23T05:11:50.311Z,1.90
2018-11-23T05:12:49.243Z,1.99
2018-11-23T05:13:49.235Z,1.93
2018-11-23T05:14:49.228Z,1.93
2018-11-23T05:15:49.216Z,1.80
2018-11-23T05:16:49.543Z,1.93
2018-11-23T05:17:49.195Z,1.93
2018-11-23T05:18:49.181Z,1.90
2018-11-23T05:19:49.174Z,1.90
2018-11-23T05:20:49.165Z,1.88
2018-11-23T05:21:49.214Z,1.93
2018-11-23T05:22:49.146Z,1.98
2018-11-23T05:23:49.134Z,1.87
2018-11-23T05:24:49.128Z,1.83
2018-11-23T05:25:49.114Z,1.90
2018-11-23T05:26:49.160Z,1.80
2018-11-23T05:27:49.157Z,1.80
2018-11-23T05:28:49.084Z,1.80
2018-11-23T05:29:49.097Z,1.80
2018-11-23T05:30:49.060Z,1.77
2018-11-23T05:31:49.049Z,1.83
2018-11-23T05:32:49.103Z,1.72
2018-11-23T05:33:49.031Z,1.80
2018-11-23T05:34:49.018Z,1.77
2018-11-23T05:35:49.010Z,1.73
2018-11-23T05:36:48.998Z,1.77
2018-11-23T05:37:49.557Z,1.62
2018-11-23T05:38:48.977Z,1.68
2018-11-23T05:39:48.973Z,1.59
2018-11-23T05:40:48.979Z,1.65
2018-11-23T05:41:48.967Z,1.68
2018-11-23T05:42:48.998Z,1.68
2018-11-23T05:43:48.925Z,1.68
2018-11-23T05:44:48.938Z,1.63
2018-11-23T05:45:48.904Z,1.63
2018-11-23T05:46:48.893Z,1.66
2018-11-23T05:47:48.960Z,1.65
2018-11-23T05:48:48.883Z,1.70
2018-11-23T05:49:48.865Z,1.68
2018-11-23T05:50:48.853Z,1.69
2018-11-23T05:51:48.842Z,1.69
2018-11-23T05:52:48.925Z,1.70
2018-11-23T05:53:48.826Z,1.65
2018-11-23T05:54:48.815Z,1.73
2018-11-23T05:55:48.819Z,1.68
2018-11-23T05:56:48.793Z,1.66
2018-11-23T05:57:49.039Z,1.73
2018-11-23T05:58:49.485Z,1.68
2018-11-23T05:59:48.766Z,1.66
2018-11-23T06:00:48.753Z,1.73
2018-11-23T06:01:48.739Z,1.73
2018-11-23T06:02:48.790Z,1.68
2018-11-23T06:03:48.718Z,1.77
2018-11-23T06:04:48.711Z,1.86
2018-11-23T06:05:48.717Z,1.81
2018-11-23T06:06:48.689Z,1.81
2018-11-23T06:07:48.737Z,1.76
2018-11-23T06:08:48.688Z,1.81
2018-11-23T06:09:48.659Z,1.81
2018-11-23T06:10:48.666Z,1.80
2018-11-23T06:11:48.672Z,1.83
2018-11-23T06:12:48.698Z,1.80
2018-11-23T06:13:48.617Z,1.77
2018-11-23T06:14:48.604Z,1.76
2018-11-23T06:15:48.596Z,1.72
2018-11-23T06:16:48.590Z,1.81
2018-11-23T06:17:48.641Z,1.73
2018-11-23T06:18:48.569Z,1.76
2018-11-23T06:19:49.475Z,1.81
2018-11-23T06:20:48.545Z,1.77
2018-11-23T06:21:48.533Z,1.81
2018-11-23T06:22:48.595Z,1.79
2018-11-23T06:23:48.514Z,1.70
2018-11-23T06:24:48.506Z,1.73
2018-11-23T06:26:44.541Z,1.81
2018-11-23T06:27:44.535Z,1.72
2018-11-23T06:28:44.462Z,1.69
2018-11-23T06:29:45.116Z,1.76
2018-11-23T06:30:44.458Z,1.73
2018-11-23T06:31:44.435Z,1.65
2018-11-23T06:32:44.482Z,1.69
2018-11-23T06:33:44.408Z,1.76
2018-11-23T06:34:44.397Z,1.66
2018-11-23T06:35:44.390Z,1.68
2018-11-23T06:36:44.382Z,1.66
2018-11-23T06:37:44.449Z,1.62
2018-11-23T06:38:44.357Z,1.72
2018-11-23T06:39:44.349Z,1.63
2018-11-23T06:40:44.336Z,1.62
2018-11-23T06:41:44.331Z,1.69
2018-11-23T06:42:44.319Z,1.70
2018-11-23T06:43:44.402Z,1.66
2018-11-23T06:44:44.294Z,1.65
2018-11-23T06:45:44.288Z,1.60
2018-11-23T06:46:45.114Z,1.59
2018-11-23T06:47:44.270Z,1.60
2018-11-23T06:48:44.322Z,1.63
2018-11-23T06:49:44.244Z,1.51
2018-11-23T06:50:44.235Z,1.54
2018-11-23T06:51:44.225Z,1.51
2018-11-23T06:52:44.215Z,1.52
2018-11-23T06:53:44.273Z,1.54
2018-11-23T06:54:44.196Z,1.60
2018-11-23T06:55:44.184Z,1.54
2018-11-23T06:56:44.172Z,1.62
2018-11-23T06:57:44.163Z,1.77
2018-11-23T06:58:44.214Z,1.76
2018-11-23T06:59:44.150Z,1.72
2018-11-23T07:00:44.133Z,1.70
2018-11-23T07:01:44.121Z,1.66
2018-11-23T07:02:44.114Z,1.69
2018-11-23T07:03:44.169Z,1.73
2018-11-23T07:04:44.093Z,1.79
2018-11-23T07:05:44.084Z,1.73
2018-11-23T07:06:44.073Z,1.73
2018-11-23T07:07:44.612Z,1.76
2018-11-23T07:08:44.109Z,1.83
2018-11-23T07:09:44.040Z,1.76
2018-11-23T07:10:44.033Z,1.87
2018-11-23T07:11:44.019Z,1.88
2018-11-23T07:12:44.008Z,1.90
2018-11-23T07:13:44.059Z,1.86
2018-11-23T07:14:43.989Z,1.90
2018-11-23T07:15:43.978Z,1.93
2018-11-23T07:16:43.969Z,1.90
2018-11-23T07:17:43.956Z,1.91
2018-11-23T07:18:44.008Z,1.93
2018-11-23T07:19:43.937Z,1.99
2018-11-23T07:20:43.926Z,1.99
2018-11-23T07:21:43.914Z,2.00
2018-11-23T07:22:43.907Z,1.93
2018-11-23T07:23:43.957Z,1.98
2018-11-23T07:24:43.887Z,1.98
2018-11-23T07:25:43.877Z,1.88
2018-11-23T07:26:43.863Z,1.95
2018-11-23T07:27:43.854Z,1.88
2018-11-23T07:28:44.176Z,1.88
2018-11-23T07:29:43.841Z,1.90
2018-11-23T07:30:43.824Z,1.86
2018-11-23T07:31:43.813Z,1.90
2018-11-23T07:32:43.803Z,1.93
2018-11-23T07:33:43.863Z,1.91
2018-11-23T07:34:43.785Z,1.90
2018-11-23T07:35:43.772Z,1.93
2018-11-23T07:36:43.768Z,1.90
2018-11-23T07:37:43.749Z,1.90
2018-11-23T07:38:43.811Z,1.76
2018-11-23T07:39:43.736Z,1.90
2018-11-23T07:40:43.721Z,1.88
2018-11-23T07:41:43.707Z,1.86
2018-11-23T07:42:43.699Z,1.91
2018-11-23T07:43:43.689Z,1.86
2018-11-23T07:44:43.738Z,1.93
2018-11-23T07:45:43.671Z,1.93
2018-11-23T07:46:43.656Z,1.93
2018-11-23T07:47:43.647Z,1.93
2018-11-23T07:48:43.638Z,1.84
2018-11-23T07:49:44.676Z,1.87
2018-11-23T07:50:43.617Z,1.88
2018-11-23T07:51:43.606Z,1.88
2018-11-23T07:52:43.594Z,1.93
2018-11-23T07:53:43.588Z,1.99
2018-11-23T07:54:43.642Z,1.93
2018-11-23T07:55:43.564Z,1.93
2018-11-23T07:56:43.554Z,1.99
2018-11-23T07:57:43.543Z,1.98
2018-11-23T07:58:43.533Z,2.03
2018-11-23T07:59:43.587Z,2.03
2018-11-23T08:00:43.510Z,2.10
2018-11-23T08:01:43.504Z,2.10
2018-11-23T08:02:43.494Z,2.07
2018-11-23T08:03:43.486Z,2.02
2018-11-23T08:04:43.532Z,2.07
2018-11-23T08:05:43.471Z,2.12
2018-11-23T08:06:43.450Z,2.10
2018-11-23T08:07:43.462Z,2.09
2018-11-23T08:08:43.432Z,2.12
2018-11-23T08:09:43.488Z,2.23
2018-11-23T08:10:45.099Z,2.18
2018-11-23T08:11:43.404Z,2.20
2018-11-23T08:12:43.390Z,2.17
2018-11-23T08:13:43.381Z,2.20
2018-11-23T08:14:43.430Z,2.21
2018-11-23T08:15:43.360Z,2.30
2018-11-23T08:16:43.348Z,2.28
2018-11-23T08:17:43.381Z,2.38
2018-11-23T08:18:43.328Z,2.38
2018-11-23T08:19:47.335Z,2.30
2018-11-23T08:20:43.307Z,2.34
2018-11-23T08:21:43.297Z,2.30
2018-11-23T08:22:43.288Z,2.34
2018-11-23T08:23:43.282Z,2.43
2018-11-23T08:24:43.330Z,2.63
2018-11-23T08:25:43.255Z,2.81
2018-11-23T08:26:43.246Z,3.21
2018-11-23T08:27:43.242Z,3.50
2018-11-23T08:28:43.226Z,3.68
2018-11-23T08:29:43.274Z,3.86
2018-11-23T08:30:43.207Z,3.88
2018-11-23T08:31:44.096Z,3.65
2018-11-23T08:32:43.189Z,3.54
2018-11-23T08:33:43.176Z,3.35
2018-11-23T08:34:43.227Z,3.21
2018-11-23T08:35:43.180Z,3.26
2018-11-23T08:36:43.141Z,3.31
2018-11-23T08:37:43.135Z,3.55
2018-11-23T08:38:43.123Z,3.86
2018-11-23T08:39:43.170Z,4.23
2018-11-23T08:40:43.102Z,4.59
2018-11-23T08:41:43.093Z,4.88
2018-11-23T08:42:43.087Z,4.99
2018-11-23T08:43:43.074Z,5.09
2018-11-23T08:44:43.121Z,5.12
2018-11-23T08:45:43.046Z,5.10
2018-11-23T08:46:43.037Z,5.33
2018-11-23T08:47:43.028Z,5.38
2018-11-23T08:48:43.019Z,5.53
2018-11-23T08:49:43.084Z,5.60
2018-11-23T08:50:42.995Z,5.78
2018-11-23T08:51:42.983Z,5.81
2018-11-23T08:52:43.590Z,5.83
2018-11-23T08:53:42.965Z,5.86
2018-11-23T08:54:42.956Z,5.82
2018-11-23T08:55:43.011Z,5.68
2018-11-23T08:56:42.932Z,5.81
2018-11-23T08:57:42.924Z,5.94
2018-11-23T08:58:42.918Z,5.96
2018-11-23T08:59:42.902Z,5.90
2018-11-23T09:00:42.959Z,5.94
2018-11-23T09:01:42.879Z,6.01
2018-11-23T09:02:42.872Z,6.25
2018-11-23T09:03:42.860Z,6.44
2018-11-23T09:04:42.853Z,6.58
2018-11-23T09:05:42.906Z,6.76
2018-11-23T09:06:42.825Z,6.43
2018-11-23T09:07:42.819Z,6.03
2018-11-23T09:08:42.807Z,5.76
2018-11-23T09:09:42.795Z,5.91
2018-11-23T09:10:42.852Z,6.41
2018-11-23T09:11:42.777Z,7.05
2018-11-23T09:12:42.762Z,7.55
2018-11-23T09:13:43.586Z,7.89
2018-11-23T09:14:42.747Z,8.23
2018-11-23T09:15:42.793Z,8.65
2018-11-23T09:16:42.725Z,9.14
2018-11-23T09:17:42.714Z,9.47
2018-11-23T09:18:42.701Z,9.75
2018-11-23T09:19:42.691Z,9.83
2018-11-23T09:20:42.744Z,9.84
2018-11-23T09:21:42.671Z,9.86
2018-11-23T09:22:42.663Z,9.96
2018-11-23T09:23:42.649Z,10.14
2018-11-23T09:24:42.637Z,10.29
2018-11-23T09:25:42.693Z,10.33
2018-11-23T09:26:42.620Z,10.51
2018-11-23T09:27:42.609Z,10.71
2018-11-23T09:28:42.598Z,10.92
2018-11-23T09:29:42.586Z,11.24
2018-11-23T09:30:42.638Z,11.49
2018-11-23T09:31:42.563Z,11.49
2018-11-23T09:32:42.554Z,11.54
2018-11-23T09:33:42.542Z,11.39
2018-11-23T09:34:43.083Z,11.10
2018-11-23T09:35:42.590Z,10.85
2018-11-23T09:36:42.516Z,10.36
2018-11-23T09:37:42.502Z,10.04
2018-11-23T09:38:42.493Z,9.84
2018-11-23T09:39:42.479Z,10.01
2018-11-23T09:40:42.528Z,10.32
2018-11-23T09:41:42.463Z,10.70
2018-11-23T09:42:42.448Z,10.91
2018-11-23T09:43:42.440Z,11.22
2018-11-23T09:44:42.428Z,11.57
2018-11-23T09:45:42.485Z,11.62
2018-11-23T09:46:42.404Z,11.44
2018-11-23T09:47:42.406Z,11.35
2018-11-23T09:48:42.386Z,11.44
2018-11-23T09:49:42.377Z,11.61
2018-11-23T09:50:42.427Z,11.62
2018-11-23T09:51:42.353Z,12.05
2018-11-23T09:52:42.349Z,12.32
2018-11-23T09:53:42.341Z,12.62
2018-11-23T09:54:42.318Z,12.89
2018-11-23T09:55:42.661Z,12.93
2018-11-23T09:56:42.299Z,13.03
2018-11-23T09:57:42.289Z,13.12
2018-11-23T09:58:43.759Z,13.39
2018-11-23T09:59:42.267Z,13.79
2018-11-23T10:00:42.259Z,14.03
2018-11-23T10:01:42.305Z,14.27
2018-11-23T10:02:42.255Z,14.54
2018-11-23T10:03:42.223Z,14.68
2018-11-23T10:04:42.214Z,14.68
2018-11-23T10:05:42.202Z,14.42
2018-11-23T10:06:42.261Z,14.27
2018-11-23T10:07:42.189Z,14.18
2018-11-23T10:08:42.177Z,14.17
2018-11-23T10:09:42.159Z,13.95
2018-11-23T10:10:42.153Z,14.17
2018-11-23T10:11:42.206Z,14.45
2018-11-23T10:12:42.130Z,14.84
2018-11-23T10:13:42.118Z,15.27
2018-11-23T10:14:42.137Z,15.57
2018-11-23T10:15:42.100Z,15.83
2018-11-23T10:16:42.655Z,16.23
2018-11-23T10:17:42.083Z,16.58
2018-11-23T10:18:42.064Z,16.56
2018-11-23T10:19:42.058Z,16.78
2018-11-23T10:20:42.043Z,16.97
2018-11-23T10:21:42.107Z,17.22
2018-11-23T10:22:42.033Z,17.34
2018-11-23T10:23:42.040Z,17.21
2018-11-23T10:24:42.005Z,17.28
2018-11-23T10:25:41.990Z,17.43
2018-11-23T10:26:42.070Z,17.31
2018-11-23T10:27:41.972Z,17.38
2018-11-23T10:28:41.962Z,17.41
2018-11-23T10:29:41.948Z,17.12
2018-11-23T10:30:41.945Z,17.19
2018-11-23T10:31:42.155Z,17.41
2018-11-23T10:32:41.913Z,17.58
2018-11-23T10:33:41.906Z,17.72
2018-11-23T10:34:41.908Z,17.89
2018-11-23T10:35:41.899Z,18.02
2018-11-23T10:36:41.940Z,18.08
2018-11-23T10:37:42.583Z,18.14
2018-11-23T10:38:41.853Z,18.21
2018-11-23T10:39:41.857Z,18.11
2018-11-23T10:40:41.831Z,18.29
2018-11-23T10:41:41.887Z,18.54
2018-11-23T10:42:41.809Z,18.44
2018-11-23T10:43:41.798Z,18.30
2018-11-23T10:44:41.790Z,18.33
2018-11-23T10:45:41.778Z,18.30
2018-11-23T10:46:41.847Z,18.37
2018-11-23T10:47:41.758Z,18.36
2018-11-23T10:48:41.743Z,18.54
2018-11-23T10:49:41.739Z,18.66
2018-11-23T10:50:41.727Z,18.65
2018-11-23T10:51:41.784Z,18.80
2018-11-23T10:52:41.704Z,18.82
2018-11-23T10:53:41.692Z,18.69
2018-11-23T10:54:41.680Z,18.67
2018-11-23T10:55:41.676Z,18.52
2018-11-23T10:56:41.728Z,18.58
2018-11-23T10:57:41.655Z,18.62
2018-11-23T10:58:42.584Z,18.78
2018-11-23T10:59:41.632Z,18.84
2018-11-23T11:00:41.619Z,18.73
2018-11-23T11:01:41.674Z,18.69
2018-11-23T11:02:41.596Z,18.80
2018-11-23T11:03:41.591Z,18.82
2018-11-23T11:04:41.573Z,18.95
2018-11-23T11:05:41.566Z,19.00
2018-11-23T11:06:41.636Z,19.11
2018-11-23T11:07:41.545Z,19.36
2018-11-23T11:08:41.533Z,19.39
2018-11-23T11:09:41.525Z,19.44
2018-11-23T11:10:41.607Z,19.47
2018-11-23T11:11:41.501Z,19.48
2018-11-23T11:12:41.558Z,19.51
2018-11-23T11:13:41.482Z,19.59
2018-11-23T11:14:41.471Z,19.63
2018-11-23T11:15:41.472Z,19.69
2018-11-23T11:16:41.466Z,19.73
2018-11-23T11:17:41.530Z,19.69
2018-11-23T11:18:41.431Z,19.44
2018-11-23T11:19:42.091Z,19.51
2018-11-23T11:20:41.430Z,19.41
2018-11-23T11:21:41.399Z,19.39
2018-11-23T11:22:41.448Z,19.55
2018-11-23T11:23:41.373Z,19.58
2018-11-23T11:24:41.364Z,19.58
2018-11-23T11:25:41.356Z,19.68
2018-11-23T11:26:41.343Z,19.54
2018-11-23T11:27:41.400Z,19.55
2018-11-23T11:28:41.322Z,19.50
2018-11-23T11:29:41.310Z,19.46
2018-11-23T11:30:41.301Z,19.47
2018-11-23T11:31:41.289Z,19.37
2018-11-23T11:32:41.341Z,19.59
2018-11-23T11:33:41.273Z,19.55
2018-11-23T11:34:41.263Z,19.73
2018-11-23T11:35:41.268Z,19.88
2018-11-23T11:36:41.239Z,19.98
2018-11-23T11:37:41.288Z,19.99
2018-11-23T11:38:41.215Z,19.99
2018-11-23T11:39:41.214Z,20.16
2018-11-23T11:40:42.088Z,20.11
2018-11-23T11:41:41.187Z,19.88
2018-11-23T11:42:41.251Z,19.47
2018-11-23T11:43:41.171Z,18.91
2018-11-23T11:44:41.156Z,19.10
2018-11-23T11:45:41.145Z,19.11
2018-11-23T11:46:41.139Z,19.31
2018-11-23T11:47:41.189Z,19.18
2018-11-23T11:48:41.112Z,19.10
2018-11-23T11:49:41.104Z,19.29
2018-11-23T11:50:41.097Z,19.18
2018-11-23T11:51:41.084Z,19.41
2018-11-23T11:52:41.137Z,19.50
2018-11-23T11:53:41.061Z,19.56
2018-11-23T11:54:41.052Z,19.62
2018-11-23T11:55:41.049Z,19.66
2018-11-23T11:56:41.031Z,19.73
2018-11-23T11:57:41.081Z,19.88
2018-11-23T11:58:41.010Z,20.11
2018-11-23T11:59:40.999Z,19.98
2018-11-23T12:00:40.990Z,20.01
2018-11-23T12:01:41.589Z,19.84
2018-11-23T12:02:41.035Z,19.51
2018-11-23T12:03:40.960Z,19.66
2018-11-23T12:04:40.956Z,19.58
2018-11-23T12:05:40.936Z,19.39
2018-11-23T12:06:40.929Z,19.13
2018-11-23T12:07:40.979Z,19.39
2018-11-23T12:08:40.920Z,19.46
2018-11-23T12:09:40.897Z,19.41
2018-11-23T12:10:40.888Z,19.40
2018-11-23T12:11:40.879Z,19.14
2018-11-23T12:12:40.928Z,18.66
2018-11-23T12:13:40.853Z,18.29
2018-11-23T12:14:40.844Z,18.30
2018-11-23T12:15:40.834Z,18.54
2018-11-23T12:16:40.827Z,18.50
2018-11-23T12:17:40.883Z,18.35
2018-11-23T12:18:40.802Z,17.97
2018-11-23T12:19:40.792Z,17.79
2018-11-23T12:20:40.789Z,17.68
2018-11-23T12:21:40.777Z,17.51
2018-11-23T12:22:41.163Z,17.33
2018-11-23T12:23:40.751Z,17.51
2018-11-23T12:24:40.744Z,17.79
2018-11-23T12:25:40.732Z,17.74
2018-11-23T12:26:40.719Z,17.71
2018-11-23T12:27:40.770Z,17.30
2018-11-23T12:28:40.697Z,17.14
2018-11-23T12:29:40.691Z,17.01
2018-11-23T12:30:40.676Z,17.07
2018-11-23T12:31:40.669Z,17.33
2018-11-23T12:32:40.716Z,17.44
2018-11-23T12:33:40.646Z,17.18
2018-11-23T12:34:40.637Z,16.73
2018-11-23T12:35:40.637Z,16.82
2018-11-23T12:36:40.616Z,17.04
2018-11-23T12:37:40.663Z,17.03
2018-11-23T12:38:43.067Z,16.93
2018-11-23T12:39:40.581Z,16.70
2018-11-23T12:40:40.574Z,16.66
2018-11-23T12:41:40.558Z,16.53
2018-11-23T12:42:40.614Z,16.71
2018-11-23T12:43:41.095Z,16.94
2018-11-23T12:44:40.527Z,16.88
2018-11-23T12:45:40.519Z,16.76
2018-11-23T12:46:40.506Z,16.76
2018-11-23T12:47:40.562Z,16.81
2018-11-23T12:48:40.487Z,16.98
2018-11-23T12:49:40.476Z,16.98
2018-11-23T12:50:40.471Z,16.91
2018-11-23T12:51:40.453Z,16.79
2018-11-23T12:52:40.516Z,16.88
2018-11-23T12:53:40.432Z,16.88
2018-11-23T12:54:40.423Z,16.75
2018-11-23T12:55:40.411Z,16.34
2018-11-23T12:56:40.611Z,16.25
2018-11-23T12:57:40.494Z,16.43
2018-11-23T12:58:40.439Z,16.78
2018-11-23T12:59:40.369Z,17.04
2018-11-23T13:00:40.784Z,17.26
2018-11-23T13:01:40.348Z,17.36
2018-11-23T13:02:40.336Z,17.41
2018-11-23T13:03:40.748Z,17.15
2018-11-23T13:04:41.280Z,16.93
2018-11-23T13:05:40.511Z,17.08
2018-11-23T13:06:40.312Z,17.30
2018-11-23T13:07:40.283Z,17.43
2018-11-23T13:08:40.336Z,17.44
2018-11-23T13:09:40.275Z,17.66
2018-11-23T13:10:40.259Z,17.79
2018-11-23T13:11:40.241Z,17.96